sensor_id;sensor_type;location;lat;lon;timestamp;P1;durP1;ratioP1;P2;durP2;ratioP2
58697;SDS011;44475;53.206;-6.106;2023-12-20T00:00:28;4.25;;;1.90;;
58697;SDS011;44475;53.206;-6.106;2023-12-20T00:02:54;5.30;;;2.17;;
58697;SDS011;44475;53.206;-6.106;2023-12-20T00:05:21;20.20;;;2.47;;
58697;SDS011;44475;53.206;-6.106;2023-12-20T00:07:47;3.60;;;1.83;;
58697;SDS011;44475;53.206;-6.106;2023-12-20T00:10:13;14.40;;;2.40;;
58697;SDS011;44475;53.206;-6.106;2023-12-20T00:12:40;13.48;;;2.33;;
58697;SDS011;44475;53.206;-6.106;2023-12-20T00:15:06;8.88;;;2.17;;
58697;SDS011;44475;53.206;-6.106;2023-12-20T00:17:33;9.52;;;2.50;;
58697;SDS011;44475;53.206;-6.106;2023-12-20T00:19:59;10.15;;;2.25;;
58697;SDS011;44475;53.206;-6.106;2023-12-20T00:22:26;6.93;;;2.10;;
58697;SDS011;44475;53.206;-6.106;2023-12-20T00:24:52;5.70;;;1.90;;
58697;SDS011;44475;53.206;-6.106;2023-12-20T00:27:18;5.13;;;1.80;;
58697;SDS011;44475;53.206;-6.106;2023-12-20T00:29:45;5.13;;;2.03;;
58697;SDS011;44475;53.206;-6.106;2023-12-20T00:32:14;4.95;;;1.90;;
58697;SDS011;44475;53.206;-6.106;2023-12-20T00:34:41;5.60;;;2.08;;
58697;SDS011;44475;53.206;-6.106;2023-12-20T00:37:08;7.68;;;2.20;;
58697;SDS011;44475;53.206;-6.106;2023-12-20T00:39:34;5.63;;;2.08;;
58697;SDS011;44475;53.206;-6.106;2023-12-20T00:42:01;4.75;;;1.95;;
58697;SDS011;44475;53.206;-6.106;2023-12-20T00:44:27;5.50;;;1.92;;
58697;SDS011;44475;53.206;-6.106;2023-12-20T00:46:53;4.45;;;1.90;;
58697;SDS011;44475;53.206;-6.106;2023-12-20T00:49:20;7.05;;;2.00;;
58697;SDS011;44475;53.206;-6.106;2023-12-20T00:51:46;3.75;;;1.75;;
58697;SDS011;44475;53.206;-6.106;2023-12-20T00:54:15;5.47;;;2.10;;
58697;SDS011;44475;53.206;-6.106;2023-12-20T00:56:42;4.90;;;2.00;;
58697;SDS011;44475;53.206;-6.106;2023-12-20T00:59:08;5.68;;;2.05;;
58697;SDS011;44475;53.206;-6.106;2023-12-20T01:01:35;4.38;;;1.80;;
58697;SDS011;44475;53.206;-6.106;2023-12-20T01:04:01;6.70;;;1.80;;
58697;SDS011;44475;53.206;-6.106;2023-12-20T01:06:27;4.32;;;1.75;;
58697;SDS011;44475;53.206;-6.106;2023-12-20T01:08:54;4.35;;;1.88;;
58697;SDS011;44475;53.206;-6.106;2023-12-20T01:11:20;5.53;;;1.90;;
58697;SDS011;44475;53.206;-6.106;2023-12-20T01:13:47;5.10;;;1.92;;
58697;SDS011;44475;53.206;-6.106;2023-12-20T01:16:13;3.92;;;1.80;;
58697;SDS011;44475;53.206;-6.106;2023-12-20T01:18:39;3.97;;;1.75;;
58697;SDS011;44475;53.206;-6.106;2023-12-20T01:21:06;4.40;;;1.80;;
58697;SDS011;44475;53.206;-6.106;2023-12-20T01:23:32;4.97;;;1.90;;
58697;SDS011;44475;53.206;-6.106;2023-12-20T01:25:58;4.00;;;1.70;;
58697;SDS011;44475;53.206;-6.106;2023-12-20T01:28:25;3.45;;;1.50;;
58697;SDS011;44475;53.206;-6.106;2023-12-20T01:30:51;4.45;;;1.80;;
58697;SDS011;44475;53.206;-6.106;2023-12-20T01:33:18;3.80;;;1.75;;
58697;SDS011;44475;53.206;-6.106;2023-12-20T01:35:44;3.70;;;1.60;;
58697;SDS011;44475;53.206;-6.106;2023-12-20T01:38:10;3.92;;;1.90;;
58697;SDS011;44475;53.206;-6.106;2023-12-20T01:40:37;4.28;;;1.80;;
58697;SDS011;44475;53.206;-6.106;2023-12-20T01:43:09;4.90;;;1.73;;
58697;SDS011;44475;53.206;-6.106;2023-12-20T01:45:37;3.53;;;1.63;;
58697;SDS011;44475;53.206;-6.106;2023-12-20T01:48:04;4.95;;;1.80;;
58697;SDS011;44475;53.206;-6.106;2023-12-20T01:50:33;3.92;;;1.73;;
58697;SDS011;44475;53.206;-6.106;2023-12-20T01:53:03;3.53;;;1.70;;
58697;SDS011;44475;53.206;-6.106;2023-12-20T01:55:33;4.00;;;1.83;;
58697;SDS011;44475;53.206;-6.106;2023-12-20T01:58:03;3.85;;;1.55;;
58697;SDS011;44475;53.206;-6.106;2023-12-20T02:00:30;3.78;;;1.88;;
58697;SDS011;44475;53.206;-6.106;2023-12-20T02:02:57;3.70;;;1.67;;
58697;SDS011;44475;53.206;-6.106;2023-12-20T02:05:29;4.65;;;1.58;;
58697;SDS011;44475;53.206;-6.106;2023-12-20T02:07:56;2.78;;;1.50;;
58697;SDS011;44475;53.206;-6.106;2023-12-20T02:10:23;4.50;;;1.90;;
58697;SDS011;44475;53.206;-6.106;2023-12-20T02:12:50;3.40;;;1.65;;
58697;SDS011;44475;53.206;-6.106;2023-12-20T02:15:16;8.27;;;1.80;;
58697;SDS011;44475;53.206;-6.106;2023-12-20T02:17:45;5.07;;;1.60;;
58697;SDS011;44475;53.206;-6.106;2023-12-20T02:20:12;5.25;;;1.50;;
58697;SDS011;44475;53.206;-6.106;2023-12-20T02:22:41;3.80;;;1.60;;
58697;SDS011;44475;53.206;-6.106;2023-12-20T02:25:07;3.90;;;1.60;;
58697;SDS011;44475;53.206;-6.106;2023-12-20T02:27:34;4.95;;;1.70;;
58697;SDS011;44475;53.206;-6.106;2023-12-20T02:30:00;3.20;;;1.50;;
58697;SDS011;44475;53.206;-6.106;2023-12-20T02:32:28;3.35;;;1.67;;
58697;SDS011;44475;53.206;-6.106;2023-12-20T02:34:55;4.15;;;1.50;;
58697;SDS011;44475;53.206;-6.106;2023-12-20T02:37:21;3.47;;;1.50;;
58697;SDS011;44475;53.206;-6.106;2023-12-20T02:39:48;3.38;;;1.52;;
58697;SDS011;44475;53.206;-6.106;2023-12-20T02:42:14;3.33;;;1.52;;
58697;SDS011;44475;53.206;-6.106;2023-12-20T02:44:40;4.38;;;1.60;;
58697;SDS011;44475;53.206;-6.106;2023-12-20T02:47:07;3.08;;;1.52;;
58697;SDS011;44475;53.206;-6.106;2023-12-20T02:49:33;4.30;;;1.70;;
58697;SDS011;44475;53.206;-6.106;2023-12-20T02:52:00;3.97;;;1.55;;
58697;SDS011;44475;53.206;-6.106;2023-12-20T02:54:26;3.47;;;1.48;;
58697;SDS011;44475;53.206;-6.106;2023-12-20T02:56:52;4.32;;;1.60;;
58697;SDS011;44475;53.206;-6.106;2023-12-20T02:59:18;2.95;;;1.42;;
58697;SDS011;44475;53.206;-6.106;2023-12-20T03:01:45;3.60;;;1.80;;
58697;SDS011;44475;53.206;-6.106;2023-12-20T03:04:11;5.97;;;1.65;;
58697;SDS011;44475;53.206;-6.106;2023-12-20T03:06:38;3.00;;;1.50;;
58697;SDS011;44475;53.206;-6.106;2023-12-20T03:09:04;5.18;;;1.50;;
58697;SDS011;44475;53.206;-6.106;2023-12-20T03:11:31;3.42;;;1.58;;
58697;SDS011;44475;53.206;-6.106;2023-12-20T03:13:57;3.75;;;1.40;;
58697;SDS011;44475;53.206;-6.106;2023-12-20T03:16:24;3.05;;;1.50;;
58697;SDS011;44475;53.206;-6.106;2023-12-20T03:18:50;2.33;;;1.30;;
58697;SDS011;44475;53.206;-6.106;2023-12-20T03:21:17;2.72;;;1.30;;
58697;SDS011;44475;53.206;-6.106;2023-12-20T03:23:43;2.38;;;1.38;;
58697;SDS011;44475;53.206;-6.106;2023-12-20T03:26:10;3.75;;;1.23;;
58697;SDS011;44475;53.206;-6.106;2023-12-20T03:28:36;2.13;;;1.30;;
58697;SDS011;44475;53.206;-6.106;2023-12-20T03:31:03;2.53;;;1.33;;
58697;SDS011;44475;53.206;-6.106;2023-12-20T03:33:29;3.10;;;1.50;;
58697;SDS011;44475;53.206;-6.106;2023-12-20T03:35:55;2.78;;;1.25;;
58697;SDS011;44475;53.206;-6.106;2023-12-20T03:38:22;2.55;;;1.30;;
58697;SDS011;44475;53.206;-6.106;2023-12-20T03:40:51;4.35;;;1.42;;
58697;SDS011;44475;53.206;-6.106;2023-12-20T03:43:17;3.17;;;1.40;;
58697;SDS011;44475;53.206;-6.106;2023-12-20T03:45:43;2.33;;;1.40;;
58697;SDS011;44475;53.206;-6.106;2023-12-20T03:48:10;3.40;;;1.50;;
58697;SDS011;44475;53.206;-6.106;2023-12-20T03:50:36;3.03;;;1.40;;
58697;SDS011;44475;53.206;-6.106;2023-12-20T03:53:02;3.28;;;1.40;;
58697;SDS011;44475;53.206;-6.106;2023-12-20T03:55:29;4.10;;;1.40;;
58697;SDS011;44475;53.206;-6.106;2023-12-20T03:57:55;4.82;;;1.40;;
58697;SDS011;44475;53.206;-6.106;2023-12-20T04:00:21;2.75;;;1.40;;
58697;SDS011;44475;53.206;-6.106;2023-12-20T04:02:47;3.90;;;1.50;;
58697;SDS011;44475;53.206;-6.106;2023-12-20T04:05:14;2.90;;;1.15;;
58697;SDS011;44475;53.206;-6.106;2023-12-20T04:07:40;3.47;;;1.50;;
58697;SDS011;44475;53.206;-6.106;2023-12-20T04:10:06;2.85;;;1.27;;
58697;SDS011;44475;53.206;-6.106;2023-12-20T04:12:33;1.95;;;1.40;;
58697;SDS011;44475;53.206;-6.106;2023-12-20T04:15:00;2.75;;;1.35;;
58697;SDS011;44475;53.206;-6.106;2023-12-20T04:17:26;2.60;;;1.30;;
58697;SDS011;44475;53.206;-6.106;2023-12-20T04:19:53;2.63;;;1.30;;
58697;SDS011;44475;53.206;-6.106;2023-12-20T04:22:19;1.75;;;1.27;;
58697;SDS011;44475;53.206;-6.106;2023-12-20T04:24:45;2.13;;;1.30;;
58697;SDS011;44475;53.206;-6.106;2023-12-20T04:27:12;4.03;;;1.40;;
58697;SDS011;44475;53.206;-6.106;2023-12-20T04:29:38;2.85;;;1.23;;
58697;SDS011;44475;53.206;-6.106;2023-12-20T04:32:04;2.08;;;1.30;;
58697;SDS011;44475;53.206;-6.106;2023-12-20T04:34:31;2.95;;;1.35;;
58697;SDS011;44475;53.206;-6.106;2023-12-20T04:36:57;1.95;;;1.25;;
58697;SDS011;44475;53.206;-6.106;2023-12-20T04:39:24;2.50;;;1.20;;
58697;SDS011;44475;53.206;-6.106;2023-12-20T04:41:51;2.78;;;1.20;;
58697;SDS011;44475;53.206;-6.106;2023-12-20T04:44:17;1.52;;;1.23;;
58697;SDS011;44475;53.206;-6.106;2023-12-20T04:46:43;1.83;;;1.20;;
58697;SDS011;44475;53.206;-6.106;2023-12-20T04:49:10;3.90;;;1.20;;
58697;SDS011;44475;53.206;-6.106;2023-12-20T04:51:36;2.10;;;1.30;;
58697;SDS011;44475;53.206;-6.106;2023-12-20T04:54:03;2.53;;;1.40;;
58697;SDS011;44475;53.206;-6.106;2023-12-20T04:56:29;1.92;;;1.20;;
58697;SDS011;44475;53.206;-6.106;2023-12-20T04:58:56;2.78;;;1.40;;
58697;SDS011;44475;53.206;-6.106;2023-12-20T05:01:22;2.67;;;1.25;;
58697;SDS011;44475;53.206;-6.106;2023-12-20T05:03:48;2.83;;;1.35;;
58697;SDS011;44475;53.206;-6.106;2023-12-20T05:06:14;2.58;;;1.23;;
58697;SDS011;44475;53.206;-6.106;2023-12-20T05:08:41;2.33;;;1.30;;
58697;SDS011;44475;53.206;-6.106;2023-12-20T05:11:07;2.95;;;1.40;;
58697;SDS011;44475;53.206;-6.106;2023-12-20T05:13:33;4.63;;;1.30;;
58697;SDS011;44475;53.206;-6.106;2023-12-20T05:16:00;2.10;;;1.20;;
58697;SDS011;44475;53.206;-6.106;2023-12-20T05:18:26;1.92;;;1.17;;
58697;SDS011;44475;53.206;-6.106;2023-12-20T05:20:52;2.38;;;1.20;;
58697;SDS011;44475;53.206;-6.106;2023-12-20T05:23:19;8.93;;;1.45;;
58697;SDS011;44475;53.206;-6.106;2023-12-20T05:25:45;3.80;;;1.48;;
58697;SDS011;44475;53.206;-6.106;2023-12-20T05:28:12;5.10;;;1.20;;
58697;SDS011;44475;53.206;-6.106;2023-12-20T05:30:38;2.42;;;1.13;;
58697;SDS011;44475;53.206;-6.106;2023-12-20T05:33:04;1.42;;;1.13;;
58697;SDS011;44475;53.206;-6.106;2023-12-20T05:35:31;2.60;;;1.23;;
58697;SDS011;44475;53.206;-6.106;2023-12-20T05:37:57;1.95;;;1.10;;
58697;SDS011;44475;53.206;-6.106;2023-12-20T05:40:23;1.75;;;1.20;;
58697;SDS011;44475;53.206;-6.106;2023-12-20T05:42:50;3.35;;;1.25;;
58697;SDS011;44475;53.206;-6.106;2023-12-20T05:45:16;1.60;;;1.15;;
58697;SDS011;44475;53.206;-6.106;2023-12-20T05:47:42;1.60;;;1.13;;
58697;SDS011;44475;53.206;-6.106;2023-12-20T05:50:09;1.60;;;1.20;;
58697;SDS011;44475;53.206;-6.106;2023-12-20T05:52:35;2.30;;;1.23;;
58697;SDS011;44475;53.206;-6.106;2023-12-20T05:55:01;1.65;;;1.10;;
58697;SDS011;44475;53.206;-6.106;2023-12-20T05:57:28;1.80;;;1.05;;
58697;SDS011;44475;53.206;-6.106;2023-12-20T05:59:54;1.63;;;1.25;;
58697;SDS011;44475;53.206;-6.106;2023-12-20T06:02:20;1.95;;;1.20;;
58697;SDS011;44475;53.206;-6.106;2023-12-20T06:04:47;2.35;;;1.33;;
58697;SDS011;44475;53.206;-6.106;2023-12-20T06:07:13;2.75;;;1.17;;
58697;SDS011;44475;53.206;-6.106;2023-12-20T06:09:40;2.85;;;1.30;;
58697;SDS011;44475;53.206;-6.106;2023-12-20T06:12:07;2.65;;;1.10;;
58697;SDS011;44475;53.206;-6.106;2023-12-20T06:14:33;2.10;;;1.20;;
58697;SDS011;44475;53.206;-6.106;2023-12-20T06:17:00;2.28;;;1.35;;
58697;SDS011;44475;53.206;-6.106;2023-12-20T06:19:27;1.45;;;1.00;;
58697;SDS011;44475;53.206;-6.106;2023-12-20T06:21:53;4.22;;;1.20;;
58697;SDS011;44475;53.206;-6.106;2023-12-20T06:24:19;3.72;;;1.73;;
58697;SDS011;44475;53.206;-6.106;2023-12-20T06:26:46;2.53;;;1.10;;
58697;SDS011;44475;53.206;-6.106;2023-12-20T06:29:13;3.40;;;1.17;;
58697;SDS011;44475;53.206;-6.106;2023-12-20T06:31:39;1.75;;;1.10;;
58697;SDS011;44475;53.206;-6.106;2023-12-20T06:34:05;2.97;;;1.17;;
58697;SDS011;44475;53.206;-6.106;2023-12-20T06:36:32;2.33;;;1.20;;
58697;SDS011;44475;53.206;-6.106;2023-12-20T06:38:59;2.33;;;1.08;;
58697;SDS011;44475;53.206;-6.106;2023-12-20T06:41:25;3.95;;;1.02;;
58697;SDS011;44475;53.206;-6.106;2023-12-20T06:43:51;1.50;;;1.10;;
58697;SDS011;44475;53.206;-6.106;2023-12-20T06:46:18;2.70;;;1.20;;
58697;SDS011;44475;53.206;-6.106;2023-12-20T06:48:45;5.63;;;1.17;;
58697;SDS011;44475;53.206;-6.106;2023-12-20T06:51:13;2.42;;;1.30;;
58697;SDS011;44475;53.206;-6.106;2023-12-20T06:53:41;3.00;;;1.25;;
58697;SDS011;44475;53.206;-6.106;2023-12-20T06:56:10;2.08;;;1.13;;
58697;SDS011;44475;53.206;-6.106;2023-12-20T06:58:37;1.40;;;1.00;;
58697;SDS011;44475;53.206;-6.106;2023-12-20T07:01:04;2.78;;;1.15;;
58697;SDS011;44475;53.206;-6.106;2023-12-20T07:03:30;1.30;;;1.00;;
58697;SDS011;44475;53.206;-6.106;2023-12-20T07:05:57;1.30;;;1.10;;
58697;SDS011;44475;53.206;-6.106;2023-12-20T07:08:23;0.85;;;0.82;;
58697;SDS011;44475;53.206;-6.106;2023-12-20T07:10:50;1.75;;;1.10;;
58697;SDS011;44475;53.206;-6.106;2023-12-20T07:13:16;2.70;;;1.20;;
58697;SDS011;44475;53.206;-6.106;2023-12-20T07:15:42;1.80;;;1.00;;
58697;SDS011;44475;53.206;-6.106;2023-12-20T07:18:09;1.60;;;1.10;;
58697;SDS011;44475;53.206;-6.106;2023-12-20T07:20:35;1.58;;;1.13;;
58697;SDS011;44475;53.206;-6.106;2023-12-20T07:23:01;4.97;;;0.95;;
58697;SDS011;44475;53.206;-6.106;2023-12-20T07:25:28;3.40;;;1.10;;
58697;SDS011;44475;53.206;-6.106;2023-12-20T07:27:57;1.85;;;1.10;;
58697;SDS011;44475;53.206;-6.106;2023-12-20T07:30:23;1.83;;;1.10;;
58697;SDS011;44475;53.206;-6.106;2023-12-20T07:32:50;2.17;;;1.15;;
58697;SDS011;44475;53.206;-6.106;2023-12-20T07:35:17;12.60;;;1.40;;
58697;SDS011;44475;53.206;-6.106;2023-12-20T07:37:44;2.08;;;1.10;;
58697;SDS011;44475;53.206;-6.106;2023-12-20T07:40:10;3.97;;;1.20;;
58697;SDS011;44475;53.206;-6.106;2023-12-20T07:42:36;2.33;;;1.00;;
58697;SDS011;44475;53.206;-6.106;2023-12-20T07:45:03;4.10;;;1.10;;
58697;SDS011;44475;53.206;-6.106;2023-12-20T07:47:30;1.98;;;1.10;;
58697;SDS011;44475;53.206;-6.106;2023-12-20T07:49:56;7.50;;;1.05;;
58697;SDS011;44475;53.206;-6.106;2023-12-20T07:52:22;1.88;;;0.95;;
58697;SDS011;44475;53.206;-6.106;2023-12-20T07:54:49;2.17;;;1.25;;
58697;SDS011;44475;53.206;-6.106;2023-12-20T07:57:15;1.73;;;1.10;;
58697;SDS011;44475;53.206;-6.106;2023-12-20T07:59:41;1.33;;;1.08;;
58697;SDS011;44475;53.206;-6.106;2023-12-20T08:02:09;3.90;;;1.10;;
58697;SDS011;44475;53.206;-6.106;2023-12-20T08:04:35;3.00;;;1.15;;
58697;SDS011;44475;53.206;-6.106;2023-12-20T08:07:03;1.45;;;1.20;;
58697;SDS011;44475;53.206;-6.106;2023-12-20T08:09:29;3.33;;;1.27;;
58697;SDS011;44475;53.206;-6.106;2023-12-20T08:11:57;2.22;;;1.27;;
58697;SDS011;44475;53.206;-6.106;2023-12-20T08:14:24;2.75;;;1.23;;
58697;SDS011;44475;53.206;-6.106;2023-12-20T08:16:51;1.95;;;1.08;;
58697;SDS011;44475;53.206;-6.106;2023-12-20T08:19:17;2.92;;;1.30;;
58697;SDS011;44475;53.206;-6.106;2023-12-20T08:21:43;5.55;;;1.70;;
58697;SDS011;44475;53.206;-6.106;2023-12-20T08:24:10;2.35;;;1.25;;
58697;SDS011;44475;53.206;-6.106;2023-12-20T08:26:36;2.85;;;1.40;;
58697;SDS011;44475;53.206;-6.106;2023-12-20T08:29:02;2.63;;;1.38;;
58697;SDS011;44475;53.206;-6.106;2023-12-20T08:31:29;1.90;;;1.30;;
58697;SDS011;44475;53.206;-6.106;2023-12-20T08:33:55;2.45;;;1.40;;
58697;SDS011;44475;53.206;-6.106;2023-12-20T08:36:22;2.05;;;1.20;;
58697;SDS011;44475;53.206;-6.106;2023-12-20T08:38:49;2.10;;;1.27;;
58697;SDS011;44475;53.206;-6.106;2023-12-20T08:41:16;2.35;;;1.20;;
58697;SDS011;44475;53.206;-6.106;2023-12-20T08:43:43;3.08;;;1.40;;
58697;SDS011;44475;53.206;-6.106;2023-12-20T08:46:09;5.57;;;1.35;;
58697;SDS011;44475;53.206;-6.106;2023-12-20T08:48:35;3.67;;;1.40;;
58697;SDS011;44475;53.206;-6.106;2023-12-20T08:51:02;2.45;;;1.35;;
58697;SDS011;44475;53.206;-6.106;2023-12-20T08:53:29;4.43;;;1.83;;
58697;SDS011;44475;53.206;-6.106;2023-12-20T08:55:55;5.03;;;1.70;;
58697;SDS011;44475;53.206;-6.106;2023-12-20T08:58:26;2.55;;;1.40;;
58697;SDS011;44475;53.206;-6.106;2023-12-20T09:00:53;4.40;;;1.42;;
58697;SDS011;44475;53.206;-6.106;2023-12-20T09:03:19;3.20;;;1.42;;
58697;SDS011;44475;53.206;-6.106;2023-12-20T09:05:45;4.28;;;1.70;;
58697;SDS011;44475;53.206;-6.106;2023-12-20T09:08:12;4.00;;;1.50;;
58697;SDS011;44475;53.206;-6.106;2023-12-20T09:10:38;4.53;;;1.50;;
58697;SDS011;44475;53.206;-6.106;2023-12-20T09:13:04;3.58;;;1.50;;
58697;SDS011;44475;53.206;-6.106;2023-12-20T09:15:31;4.28;;;1.52;;
58697;SDS011;44475;53.206;-6.106;2023-12-20T09:17:59;2.97;;;1.50;;
58697;SDS011;44475;53.206;-6.106;2023-12-20T09:20:26;3.92;;;1.40;;
58697;SDS011;44475;53.206;-6.106;2023-12-20T09:22:52;2.42;;;1.40;;
58697;SDS011;44475;53.206;-6.106;2023-12-20T09:25:19;3.63;;;1.52;;
58697;SDS011;44475;53.206;-6.106;2023-12-20T09:27:45;3.22;;;1.45;;
58697;SDS011;44475;53.206;-6.106;2023-12-20T09:30:11;4.68;;;1.50;;
58697;SDS011;44475;53.206;-6.106;2023-12-20T09:32:38;5.97;;;1.70;;
58697;SDS011;44475;53.206;-6.106;2023-12-20T09:35:04;4.20;;;1.73;;
58697;SDS011;44475;53.206;-6.106;2023-12-20T09:37:31;6.88;;;1.70;;
58697;SDS011;44475;53.206;-6.106;2023-12-20T09:39:58;6.10;;;1.70;;
58697;SDS011;44475;53.206;-6.106;2023-12-20T09:42:28;4.80;;;1.75;;
58697;SDS011;44475;53.206;-6.106;2023-12-20T09:44:58;6.32;;;1.63;;
58697;SDS011;44475;53.206;-6.106;2023-12-20T09:47:28;7.15;;;1.83;;
58697;SDS011;44475;53.206;-6.106;2023-12-20T09:49:54;8.82;;;1.70;;
58697;SDS011;44475;53.206;-6.106;2023-12-20T09:52:22;9.85;;;1.90;;
58697;SDS011;44475;53.206;-6.106;2023-12-20T09:54:49;6.88;;;1.70;;
58697;SDS011;44475;53.206;-6.106;2023-12-20T09:57:19;10.10;;;2.00;;
58697;SDS011;44475;53.206;-6.106;2023-12-20T09:59:45;7.40;;;2.10;;
58697;SDS011;44475;53.206;-6.106;2023-12-20T10:02:13;6.65;;;1.90;;
58697;SDS011;44475;53.206;-6.106;2023-12-20T10:04:42;15.85;;;1.90;;
58697;SDS011;44475;53.206;-6.106;2023-12-20T10:07:15;19.73;;;2.50;;
58697;SDS011;44475;53.206;-6.106;2023-12-20T10:09:42;22.60;;;2.83;;
58697;SDS011;44475;53.206;-6.106;2023-12-20T10:12:09;15.00;;;2.33;;
58697;SDS011;44475;53.206;-6.106;2023-12-20T10:14:35;18.70;;;2.28;;
58697;SDS011;44475;53.206;-6.106;2023-12-20T10:17:03;22.92;;;3.00;;
58697;SDS011;44475;53.206;-6.106;2023-12-20T10:19:31;21.30;;;2.42;;
58697;SDS011;44475;53.206;-6.106;2023-12-20T10:22:01;19.92;;;2.58;;
58697;SDS011;44475;53.206;-6.106;2023-12-20T10:24:30;16.98;;;2.70;;
58697;SDS011;44475;53.206;-6.106;2023-12-20T10:27:03;19.52;;;2.50;;
58697;SDS011;44475;53.206;-6.106;2023-12-20T10:29:36;23.25;;;2.63;;
58697;SDS011;44475;53.206;-6.106;2023-12-20T10:32:22;22.92;;;2.67;;
58697;SDS011;44475;53.206;-6.106;2023-12-20T10:34:50;13.85;;;2.55;;
58697;SDS011;44475;53.206;-6.106;2023-12-20T10:37:18;13.02;;;2.58;;
58697;SDS011;44475;53.206;-6.106;2023-12-20T10:39:44;16.05;;;2.55;;
58697;SDS011;44475;53.206;-6.106;2023-12-20T10:42:22;14.45;;;2.40;;
58697;SDS011;44475;53.206;-6.106;2023-12-20T10:44:52;13.68;;;2.55;;
58697;SDS011;44475;53.206;-6.106;2023-12-20T10:47:21;11.90;;;2.25;;
58697;SDS011;44475;53.206;-6.106;2023-12-20T10:49:47;12.60;;;2.20;;
58697;SDS011;44475;53.206;-6.106;2023-12-20T10:52:15;8.98;;;2.22;;
58697;SDS011;44475;53.206;-6.106;2023-12-20T10:54:43;12.55;;;2.50;;
58697;SDS011;44475;53.206;-6.106;2023-12-20T10:57:10;12.05;;;2.33;;
58697;SDS011;44475;53.206;-6.106;2023-12-20T10:59:37;9.05;;;2.40;;
58697;SDS011;44475;53.206;-6.106;2023-12-20T11:02:04;8.13;;;2.10;;
58697;SDS011;44475;53.206;-6.106;2023-12-20T11:10:31;9.18;;;2.00;;
58697;SDS011;44475;53.206;-6.106;2023-12-20T11:15:37;9.95;;;2.08;;
58697;SDS011;44475;53.206;-6.106;2023-12-20T11:18:04;7.20;;;2.30;;
58697;SDS011;44475;53.206;-6.106;2023-12-20T11:20:38;7.15;;;2.05;;
58697;SDS011;44475;53.206;-6.106;2023-12-20T11:23:06;6.82;;;2.08;;
58697;SDS011;44475;53.206;-6.106;2023-12-20T11:25:54;8.23;;;1.90;;
58697;SDS011;44475;53.206;-6.106;2023-12-20T11:28:24;9.25;;;2.08;;
58697;SDS011;44475;53.206;-6.106;2023-12-20T11:30:55;5.57;;;1.90;;
58697;SDS011;44475;53.206;-6.106;2023-12-20T11:33:35;9.50;;;1.90;;
58697;SDS011;44475;53.206;-6.106;2023-12-20T11:36:03;7.72;;;2.00;;
58697;SDS011;44475;53.206;-6.106;2023-12-20T11:38:38;6.07;;;2.00;;
58697;SDS011;44475;53.206;-6.106;2023-12-20T11:41:14;5.00;;;2.00;;
58697;SDS011;44475;53.206;-6.106;2023-12-20T11:43:41;6.50;;;1.85;;
58697;SDS011;44475;53.206;-6.106;2023-12-20T11:46:08;6.82;;;2.00;;
58697;SDS011;44475;53.206;-6.106;2023-12-20T11:48:36;7.53;;;2.17;;
58697;SDS011;44475;53.206;-6.106;2023-12-20T11:51:13;5.47;;;2.00;;
58697;SDS011;44475;53.206;-6.106;2023-12-20T11:53:40;4.68;;;1.98;;
58697;SDS011;44475;53.206;-6.106;2023-12-20T11:56:09;7.88;;;2.30;;
58697;SDS011;44475;53.206;-6.106;2023-12-20T11:58:36;7.22;;;1.88;;
58697;SDS011;44475;53.206;-6.106;2023-12-20T12:01:03;5.78;;;1.90;;
58697;SDS011;44475;53.206;-6.106;2023-12-20T12:03:32;6.30;;;2.08;;
58697;SDS011;44475;53.206;-6.106;2023-12-20T12:05:58;6.60;;;2.17;;
58697;SDS011;44475;53.206;-6.106;2023-12-20T12:08:26;7.15;;;2.03;;
58697;SDS011;44475;53.206;-6.106;2023-12-20T12:10:52;6.53;;;2.20;;
58697;SDS011;44475;53.206;-6.106;2023-12-20T12:13:18;5.22;;;2.00;;
58697;SDS011;44475;53.206;-6.106;2023-12-20T12:15:45;5.22;;;2.20;;
58697;SDS011;44475;53.206;-6.106;2023-12-20T12:18:15;4.97;;;2.10;;
58697;SDS011;44475;53.206;-6.106;2023-12-20T12:20:42;7.00;;;2.20;;
58697;SDS011;44475;53.206;-6.106;2023-12-20T12:23:08;6.70;;;2.30;;
58697;SDS011;44475;53.206;-6.106;2023-12-20T12:25:35;6.50;;;2.33;;
58697;SDS011;44475;53.206;-6.106;2023-12-20T12:28:04;6.65;;;2.13;;
58697;SDS011;44475;53.206;-6.106;2023-12-20T12:30:31;6.25;;;2.15;;
58697;SDS011;44475;53.206;-6.106;2023-12-20T12:32:57;8.52;;;2.20;;
58697;SDS011;44475;53.206;-6.106;2023-12-20T12:35:23;5.63;;;2.10;;
58697;SDS011;44475;53.206;-6.106;2023-12-20T12:37:50;4.72;;;2.08;;
58697;SDS011;44475;53.206;-6.106;2023-12-20T12:40:17;4.72;;;2.00;;
58697;SDS011;44475;53.206;-6.106;2023-12-20T12:42:44;6.43;;;2.10;;
58697;SDS011;44475;53.206;-6.106;2023-12-20T12:45:11;5.90;;;2.15;;
58697;SDS011;44475;53.206;-6.106;2023-12-20T12:47:37;9.73;;;2.30;;
58697;SDS011;44475;53.206;-6.106;2023-12-20T12:50:04;5.80;;;2.03;;
58697;SDS011;44475;53.206;-6.106;2023-12-20T12:52:31;7.35;;;2.20;;
58697;SDS011;44475;53.206;-6.106;2023-12-20T12:54:57;6.43;;;2.35;;
58697;SDS011;44475;53.206;-6.106;2023-12-20T12:57:23;6.40;;;2.25;;
58697;SDS011;44475;53.206;-6.106;2023-12-20T12:59:50;5.03;;;2.10;;
58697;SDS011;44475;53.206;-6.106;2023-12-20T13:02:17;6.15;;;1.90;;
58697;SDS011;44475;53.206;-6.106;2023-12-20T13:04:45;5.30;;;1.95;;
58697;SDS011;44475;53.206;-6.106;2023-12-20T13:07:11;7.53;;;2.00;;
58697;SDS011;44475;53.206;-6.106;2023-12-20T13:09:38;5.57;;;1.85;;
58697;SDS011;44475;53.206;-6.106;2023-12-20T13:12:05;6.60;;;2.00;;
58697;SDS011;44475;53.206;-6.106;2023-12-20T13:14:33;5.10;;;2.20;;
58697;SDS011;44475;53.206;-6.106;2023-12-20T13:17:00;5.65;;;1.90;;
58697;SDS011;44475;53.206;-6.106;2023-12-20T13:19:26;4.93;;;1.90;;
58697;SDS011;44475;53.206;-6.106;2023-12-20T13:21:53;4.45;;;1.90;;
58697;SDS011;44475;53.206;-6.106;2023-12-20T13:24:21;5.35;;;1.85;;
58697;SDS011;44475;53.206;-6.106;2023-12-20T13:26:47;4.38;;;1.70;;
58697;SDS011;44475;53.206;-6.106;2023-12-20T13:29:14;4.00;;;1.70;;
58697;SDS011;44475;53.206;-6.106;2023-12-20T13:31:40;3.90;;;1.83;;
58697;SDS011;44475;53.206;-6.106;2023-12-20T13:34:06;6.32;;;1.98;;
58697;SDS011;44475;53.206;-6.106;2023-12-20T13:36:33;5.25;;;1.90;;
58697;SDS011;44475;53.206;-6.106;2023-12-20T13:38:59;4.30;;;1.90;;
58697;SDS011;44475;53.206;-6.106;2023-12-20T13:41:25;4.97;;;1.75;;
58697;SDS011;44475;53.206;-6.106;2023-12-20T13:43:51;3.97;;;1.73;;
58697;SDS011;44475;53.206;-6.106;2023-12-20T13:46:19;3.40;;;1.70;;
58697;SDS011;44475;53.206;-6.106;2023-12-20T13:48:45;4.70;;;2.03;;
58697;SDS011;44475;53.206;-6.106;2023-12-20T13:51:11;4.10;;;1.63;;
58697;SDS011;44475;53.206;-6.106;2023-12-20T13:53:38;4.97;;;1.80;;
58697;SDS011;44475;53.206;-6.106;2023-12-20T13:56:04;5.93;;;1.77;;
58697;SDS011;44475;53.206;-6.106;2023-12-20T13:58:31;5.57;;;1.80;;
58697;SDS011;44475;53.206;-6.106;2023-12-20T14:00:57;4.85;;;2.00;;
58697;SDS011;44475;53.206;-6.106;2023-12-20T14:03:24;5.72;;;2.00;;
58697;SDS011;44475;53.206;-6.106;2023-12-20T14:05:50;5.35;;;1.75;;
58697;SDS011;44475;53.206;-6.106;2023-12-20T14:08:16;4.10;;;1.83;;
58697;SDS011;44475;53.206;-6.106;2023-12-20T14:10:42;3.72;;;1.70;;
58697;SDS011;44475;53.206;-6.106;2023-12-20T14:13:09;3.80;;;1.80;;
58697;SDS011;44475;53.206;-6.106;2023-12-20T14:15:35;5.85;;;1.80;;
58697;SDS011;44475;53.206;-6.106;2023-12-20T14:18:05;4.50;;;1.85;;
58697;SDS011;44475;53.206;-6.106;2023-12-20T14:20:33;4.53;;;1.80;;
58697;SDS011;44475;53.206;-6.106;2023-12-20T14:23:00;4.03;;;1.77;;
58697;SDS011;44475;53.206;-6.106;2023-12-20T14:25:27;3.47;;;1.95;;
58697;SDS011;44475;53.206;-6.106;2023-12-20T14:27:53;6.22;;;1.90;;
58697;SDS011;44475;53.206;-6.106;2023-12-20T14:30:19;4.43;;;1.73;;
58697;SDS011;44475;53.206;-6.106;2023-12-20T14:32:46;9.38;;;1.80;;
58697;SDS011;44475;53.206;-6.106;2023-12-20T14:35:13;4.15;;;1.80;;
58697;SDS011;44475;53.206;-6.106;2023-12-20T14:37:39;2.85;;;1.50;;
58697;SDS011;44475;53.206;-6.106;2023-12-20T14:40:06;5.78;;;1.90;;